Time;durP1;ratioP1;P1;durP2;ratioP2;P2;SDS_P1;SDS_P2;PMS_P1;PMS_P2;Temp;Humidity;BMP_temperature;BMP_pressure;BME280_temperature;BME280_humidity;BME280_pressure;Samples;Min_cycle;Max_cycle;Signal;HPM_P1;HPM_P2
2022/11/29 00:01:01;;;;;;;;;11.25;11.25;;;;;9.37;76.27;100508.66;5076303;28;45187;-71
2022/11/29 00:03:27;;;;;;;;;7.75;6.50;;;;;9.31;76.64;100503.66;5075828;28;45387;-71
2022/11/29 00:05:54;;;;;;;;;9.00;9.00;;;;;9.37;76.98;100507.84;5075724;28;45213;-73
2022/11/29 00:08:20;;;;;;;;;6.50;6.50;;;;;9.37;76.82;100515.72;5076159;28;45286;-72
2022/11/29 00:10:46;;;;;;;;;4.50;4.50;;;;;9.27;76.75;100502.03;5074554;27;45551;-71
2022/11/29 00:13:12;;;;;;;;;6.00;6.00;;;;;9.26;77.08;100503.81;5075792;27;46230;-73
2022/11/29 00:15:38;;;;;;;;;6.75;6.75;;;;;9.27;76.90;100520.41;5075646;27;45436;-72
2022/11/29 00:18:06;;;;;;;;;4.75;4.75;;;;;9.25;76.94;100519.63;5074303;28;45290;-74
2022/11/29 00:20:32;;;;;;;;;7.00;7.00;;;;;9.21;77.23;100518.88;5075795;28;45218;-72
2022/11/29 00:22:57;;;;;;;;;6.75;6.75;;;;;9.18;77.37;100514.59;5074928;27;46495;-72
2022/11/29 00:25:23;;;;;;;;;7.25;7.25;;;;;9.16;77.89;100515.56;5075319;28;45157;-72
2022/11/29 00:27:50;;;;;;;;;10.50;9.25;;;;;9.14;77.58;100514.75;5075394;28;45578;-73
2022/11/29 00:30:15;;;;;;;;;6.25;6.25;;;;;9.15;77.35;100516.47;5075605;27;45813;-73
2022/11/29 00:32:40;;;;;;;;;9.00;8.00;;;;;9.09;77.64;100514.06;5074656;28;46356;-74
2022/11/29 00:35:06;;;;;;;;;7.00;7.00;;;;;9.09;77.76;100522.78;5074938;27;45451;-71
2022/11/29 00:37:31;;;;;;;;;8.25;8.25;;;;;9.05;77.76;100521.19;5074713;27;45501;-72
2022/11/29 00:39:57;;;;;;;;;7.25;7.25;;;;;9.07;77.87;100535.09;5072209;27;45674;-73
2022/11/29 00:42:22;;;;;;;;;5.00;5.00;;;;;8.97;77.75;100523.22;5073995;27;45533;-73
2022/11/29 00:44:47;;;;;;;;;8.25;7.50;;;;;8.96;77.92;100524.13;5074648;27;45421;-73
2022/11/29 00:47:13;;;;;;;;;6.00;6.00;;;;;8.94;78.15;100528.56;5074996;27;45402;-73
2022/11/29 00:49:38;;;;;;;;;7.25;7.25;;;;;8.88;78.30;100527.88;5073523;28;45420;-73
2022/11/29 00:52:04;;;;;;;;;8.50;8.50;;;;;8.84;78.41;100522.75;5074844;27;45489;-73
2022/11/29 00:54:29;;;;;;;;;8.00;6.25;;;;;8.81;78.85;100517.63;5074481;28;45315;-71
2022/11/29 00:56:54;;;;;;;;;9.50;9.00;;;;;8.80;78.41;100529.03;5074767;27;46106;-72
2022/11/29 00:59:20;;;;;;;;;6.75;6.00;;;;;8.71;78.66;100520.56;5075248;27;45541;-72
2022/11/29 01:01:45;;;;;;;;;6.50;6.00;;;;;8.79;79.03;100535.19;5074515;28;46438;-72
2022/11/29 01:04:10;;;;;;;;;5.75;5.75;;;;;8.75;79.02;100527.41;5072715;28;45434;-72
2022/11/29 01:06:36;;;;;;;;;7.00;7.00;;;;;8.75;79.06;100529.19;5074943;27;45401;-71
2022/11/29 01:09:01;;;;;;;;;7.00;7.00;;;;;8.74;79.05;100528.31;5073839;28;45144;-72
2022/11/29 01:11:28;;;;;;;;;7.75;7.75;;;;;8.76;79.28;100533.53;5074316;28;45345;-72
2022/11/29 01:13:56;;;;;;;;;7.25;7.25;;;;;8.73;79.46;100528.38;5089993;27;45347;-70
2022/11/29 01:16:22;;;;;;;;;5.00;5.00;;;;;8.69;79.42;100516.28;5074495;28;45306;-72
2022/11/29 01:18:47;;;;;;;;;6.00;6.00;;;;;8.73;79.50;100526.59;5074613;27;45498;-71
2022/11/29 01:21:16;;;;;;;;;7.00;7.00;;;;;8.74;79.29;100530.94;5074055;28;45383;-73
2022/11/29 01:23:42;;;;;;;;;5.50;5.50;;;;;8.74;79.62;100540.59;5074226;27;45351;-73
2022/11/29 01:26:15;;;;;;;;;8.00;8.00;;;;;8.74;79.60;100543.22;5074825;28;45333;-73
2022/11/29 01:28:41;;;;;;;;;5.50;5.50;;;;;8.70;79.72;100546.84;5074961;27;45549;-71
2022/11/29 01:31:11;;;;;;;;;7.50;7.50;;;;;8.69;79.72;100550.38;5090001;27;47531;-73
2022/11/29 01:33:37;;;;;;;;;7.00;7.00;;;;;8.66;79.96;100550.47;5073385;28;45336;-70
2022/11/29 01:36:04;;;;;;;;;7.00;7.00;;;;;8.66;79.99;100550.47;5074422;27;45479;-73
2022/11/29 01:38:30;;;;;;;;;6.00;6.00;;;;;8.61;80.11;100542.75;5075084;28;45399;-73
2022/11/29 01:41:04;;;;;;;;;7.00;7.00;;;;;8.64;79.80;100552.28;5074563;28;46294;-72
2022/11/29 01:43:30;;;;;;;;;6.00;6.00;;;;;8.60;80.20;100552.41;5074281;28;45482;-72
2022/11/29 01:45:55;;;;;;;;;6.25;6.25;;;;;8.66;80.29;100560.97;5072817;28;45300;-72
2022/11/29 01:48:25;;;;;;;;;7.00;7.00;;;;;8.70;80.66;100567.81;5074658;28;45347;-70
2022/11/29 01:50:52;;;;;;;;;5.00;5.00;;;;;8.72;80.24;100560.75;5074012;28;45515;-75
2022/11/29 01:53:19;;;;;;;;;6.50;6.50;;;;;8.76;80.45;100575.50;5073763;28;45315;-75
2022/11/29 01:55:49;;;;;;;;;5.00;5.00;;;;;8.75;80.16;100565.91;5073948;27;45280;-75
2022/11/29 01:58:15;;;;;;;;;6.75;6.75;;;;;8.79;80.25;100572.78;5074240;28;45435;-74
2022/11/29 02:00:40;;;;;;;;;6.50;6.50;;;;;8.80;79.89;100574.47;5074128;27;46431;-71
2022/11/29 02:03:12;;;;;;;;;6.50;6.50;;;;;8.85;79.73;100585.69;5074452;27;45451;-77
2022/11/29 02:05:44;;;;;;;;;6.75;6.75;;;;;8.88;79.81;100582.97;5074223;28;45169;-74
2022/11/29 02:08:12;;;;;;;;;6.50;6.50;;;;;8.77;79.64;100559.69;5072767;27;45470;-76
2022/11/29 02:11:02;;;;;;;;;5.50;5.50;;;;;8.99;79.77;100589.59;5073618;28;47338;-76
2022/11/29 02:13:46;;;;;;;;;7.75;7.25;;;;;9.06;79.68;100593.75;5074162;28;45394;-74
2022/11/29 02:16:22;;;;;;;;;6.75;6.75;;;;;9.08;nan;100580.59;5089162;27;45411;-72
2022/11/29 02:19:17;;;;;;;;;6.75;6.75;;;;;9.12;79.02;100587.44;5074316;28;45310;-75
2022/11/29 02:21:48;;;;;;;;;5.50;5.50;;;;;9.17;79.01;100588.97;5077139;28;46047;-74
2022/11/29 02:24:38;;;;;;;;;8.25;7.00;;;;;9.21;79.04;100587.97;5078274;27;45363;-76
2022/11/29 02:27:38;;;;;;;;;7.50;7.25;;;;;9.22;78.79;100588.84;5078566;28;45318;-75
2022/11/29 02:30:31;;;;;;;;;9.00;9.00;;;;;9.20;78.47;100591.50;5077683;28;45215;-74
2022/11/29 02:33:26;;;;;;;;;8.50;8.50;;;;;9.18;78.71;100590.69;5092945;27;47356;-74
2022/11/29 02:36:19;;;;;;;;;7.25;7.25;;;;;9.18;78.38;100590.69;5075160;28;45258;-75
2022/11/29 02:38:50;;;;;;;;;7.50;7.50;;;;;9.19;78.44;100587.16;5076845;28;45368;-77
2022/11/29 02:41:53;;;;;;;;;7.25;7.25;;;;;9.19;78.47;100589.78;5077562;28;45526;-75
2022/11/29 02:44:25;;;;;;;;;7.00;7.00;;;;;9.21;78.53;100595.00;5092381;27;48479;-77
2022/11/29 02:46:50;;;;;;;;;7.75;7.75;;;;;9.19;78.59;100597.66;5092359;27;45333;-76
2022/11/29 02:49:22;;;;;;;;;7.00;7.00;;;;;9.23;78.55;100597.56;5092336;27;45435;-76
2022/11/29 02:51:59;;;;;;;;;6.50;6.50;;;;;9.24;78.68;100594.03;5077133;28;45360;-76
2022/11/29 02:54:41;;;;;;;;;6.25;6.25;;;;;9.24;78.25;100599.28;5076343;27;46439;-76
2022/11/29 02:57:28;;;;;;;;;6.50;6.50;;;;;9.19;78.18;100596.81;5076475;28;45450;-74
2022/11/29 03:00:02;;;;;;;;;7.25;7.25;;;;;9.13;78.26;100597.88;5074821;28;45331;-76
2022/11/29 03:02:46;;;;;;;;;9.00;7.00;;;;;9.10;78.52;100597.97;5076744;27;45322;-75
2022/11/29 03:05:31;;;;;;;;;9.25;9.25;;;;;9.09;78.71;100606.75;5076739;28;45505;-76
2022/11/29 03:08:34;;;;;;;;;6.00;6.00;;;;;9.10;78.73;100608.47;5076198;28;45407;-77
2022/11/29 03:11:35;;;;;;;;;5.75;5.75;;;;;9.08;78.78;100606.81;5076551;27;45299;-74
2022/11/29 03:14:27;;;;;;;;;6.75;6.75;;;;;9.14;78.78;100614.50;5067926;28;45350;-76
2022/11/29 03:17:16;;;;;;;;;8.50;8.50;;;;;9.15;78.65;100613.59;5076116;27;45469;-76
2022/11/29 03:20:00;;;;;;;;;5.50;5.50;;;;;9.13;78.50;100613.63;5076699;28;45262;-76
2022/11/29 03:22:37;;;;;;;;;9.50;8.25;;;;;9.11;78.45;100615.44;5076379;27;45336;-75
2022/11/29 03:25:07;;;;;;;;;9.50;9.50;;;;;9.10;78.87;100608.47;5092511;27;45245;-76
2022/11/29 03:28:00;;;;;;;;;7.75;7.75;;;;;9.14;78.77;100619.75;5076241;27;45985;-72
2022/11/29 03:30:28;;;;;;;;;8.00;8.00;;;;;9.09;78.46;100612.00;5076334;27;45418;-76
2022/11/29 03:33:14;;;;;;;;;10.00;10.00;;;;;9.09;78.70;100616.41;5074120;28;45375;-76
2022/11/29 03:35:50;;;;;;;;;11.50;10.00;;;;;9.01;78.59;100617.53;5076434;28;45948;-76
2022/11/29 03:38:24;;;;;;;;;7.75;7.75;;;;;9.01;78.81;100625.41;5076428;28;46405;-75
2022/11/29 03:41:11;;;;;;;;;11.75;11.75;;;;;9.00;78.79;100626.28;5075866;28;45363;-77
2022/11/29 03:43:52;;;;;;;;;9.00;9.00;;;;;8.98;78.59;100625.47;5075905;28;45278;-76
2022/11/29 03:46:30;;;;;;;;;10.00;10.00;;;;;8.90;78.79;100622.22;5076216;27;45342;-75
2022/11/29 03:49:04;;;;;;;;;9.00;9.00;;;;;8.93;79.01;100629.16;5075725;28;46338;-76
2022/11/29 03:51:52;;;;;;;;;9.75;9.75;;;;;8.92;79.13;100638.78;5076093;28;45342;-76
2022/11/29 03:54:26;;;;;;;;;9.00;9.00;;;;;8.89;79.21;100644.13;5076276;28;45393;-76
2022/11/29 03:56:52;;;;;;;;;10.00;10.00;;;;;8.84;78.90;100644.28;5076813;28;45215;-74
2022/11/29 03:59:45;;;;;;;;;10.25;10.25;;;;;8.85;79.34;100637.28;5074663;28;47032;-73
2022/11/29 04:02:32;;;;;;;;;11.75;11.00;;;;;8.83;79.33;100647.81;5076180;28;45214;-76
2022/11/29 04:05:27;;;;;;;;;11.75;11.75;;;;;8.79;79.73;100643.59;5092343;27;45281;-76
2022/11/29 04:07:52;;;;;;;;;12.25;12.25;;;;;8.81;79.50;100652.25;5076765;28;45443;-78
2022/11/29 04:10:39;;;;;;;;;12.50;12.50;;;;;8.83;79.47;100653.06;5077051;28;45399;-73
2022/11/29 04:13:38;;;;;;;;;11.75;11.75;;;;;8.85;79.75;100655.63;5092575;27;45879;-78
2022/11/29 04:16:12;;;;;;;;;12.00;12.00;;;;;8.86;79.65;100655.59;5075509;28;45313;-78
2022/11/29 04:18:49;;;;;;;;;12.00;12.00;;;;;8.90;79.81;100662.47;5075936;28;45409;-77
2022/11/29 04:21:36;;;;;;;;;10.50;10.00;;;;;8.93;79.56;100668.53;5075483;28;46173;-76
2022/11/29 04:24:44;;;;;;;;;14.75;14.00;;;;;8.99;79.75;100666.53;5075225;28;45369;-78
2022/11/29 04:27:26;;;;;;;;;11.50;11.50;;;;;9.01;79.37;100671.75;5075128;28;45244;-74
2022/11/29 04:30:04;;;;;;;;;12.00;12.00;;;;;9.04;79.33;100676.91;5075435;28;45338;-75
2022/11/29 04:32:51;;;;;;;;;11.00;11.00;;;;;9.02;79.35;100682.22;5075180;28;45727;-76
2022/11/29 04:35:35;;;;;;;;;11.25;11.25;;;;;9.00;79.22;100686.63;5075290;28;45296;-75
2022/11/29 04:38:06;;;;;;;;;12.25;12.25;;;;;9.00;79.97;100681.38;5075231;28;45281;-72
2022/11/29 04:41:01;;;;;;;;;10.50;10.50;;;;;9.02;79.16;100682.22;5091179;27;45367;-76
2022/11/29 04:43:51;;;;;;;;;14.25;11.75;;;;;9.03;79.17;100686.56;5073333;28;45345;-76
2022/11/29 04:46:38;;;;;;;;;14.00;13.00;;;;;8.99;79.29;100692.78;5075558;28;45418;-75
2022/11/29 04:49:30;;;;;;;;;17.00;17.00;;;;;8.99;79.39;100700.66;5075395;28;45355;-76
2022/11/29 04:52:17;;;;;;;;;14.75;14.00;;;;;8.97;79.47;100689.34;5075082;28;45507;-74
2022/11/29 04:55:09;;;;;;;;;14.25;14.25;;;;;8.88;79.44;100685.25;5074478;28;45359;-77
2022/11/29 04:57:45;;;;;;;;;11.25;11.25;;;;;8.96;79.44;100689.41;5074907;28;45238;-75
2022/11/29 05:00:22;;;;;;;;;18.25;18.25;;;;;8.95;79.16;100695.56;5075087;27;45336;-75
2022/11/29 05:02:55;;;;;;;;;10.50;10.50;;;;;8.94;79.49;100701.72;5075366;27;45495;-73
2022/11/29 05:05:26;;;;;;;;;18.00;15.50;;;;;8.94;79.30;100704.34;5074647;27;46365;-74
2022/11/29 05:08:11;;;;;;;;;15.25;15.25;;;;;8.92;79.43;100699.13;5074652;28;45272;-74
2022/11/29 05:11:05;;;;;;;;;16.75;16.75;;;;;8.89;79.69;100715.84;5074743;27;45472;-75
2022/11/29 05:13:55;;;;;;;;;15.00;15.00;;;;;8.90;79.75;100714.06;5075155;28;45834;-76
2022/11/29 05:16:21;;;;;;;;;14.00;14.00;;;;;8.89;79.68;100713.22;5074974;28;45443;-70
2022/11/29 05:18:55;;;;;;;;;14.50;14.50;;;;;8.94;79.42;100720.91;5074891;28;45280;-75
2022/11/29 05:21:39;;;;;;;;;12.25;12.25;;;;;8.98;79.61;100725.16;5090167;27;45467;-76
2022/11/29 05:24:50;;;;;;;;;12.75;12.75;;;;;9.01;79.38;100724.22;5074955;28;45357;-76
2022/11/29 05:27:45;;;;;;;;;14.50;14.50;;;;;9.03;79.22;100723.28;5068578;28;46332;-74
2022/11/29 05:30:15;;;;;;;;;14.00;14.00;;;;;9.05;79.68;100721.47;5074264;28;45292;-75
2022/11/29 05:33:02;;;;;;;;;14.75;14.75;;;;;9.09;79.31;100732.72;5074476;28;45459;-75
2022/11/29 05:35:39;;;;;;;;;13.00;13.00;;;;;9.10;79.19;100731.81;5074778;28;45398;-74
2022/11/29 05:38:05;;;;;;;;;13.25;13.25;;;;;9.10;78.91;100741.47;5074504;27;45426;-76
2022/11/29 05:40:39;;;;;;;;;9.25;8.75;;;;;9.10;78.98;100747.56;5074244;27;45490;-75
2022/11/29 05:43:32;;;;;;;;;13.75;13.75;;;;;9.11;79.27;100751.06;5090313;27;45331;-76
2022/11/29 05:46:11;;;;;;;;;13.75;13.00;;;;;9.12;79.11;100750.16;5090798;27;45495;-75
2022/11/29 05:48:48;;;;;;;;;14.00;14.00;;;;;9.09;78.66;100745.00;5074414;28;46531;-76
2022/11/29 05:51:43;;;;;;;;;11.50;11.50;;;;;9.05;78.95;100749.47;5074260;28;45335;-76
2022/11/29 05:54:32;;;;;;;;;13.50;13.50;;;;;9.03;79.05;100754.78;5074104;28;45246;-73
2022/11/29 05:57:12;;;;;;;;;11.75;11.75;;;;;8.94;79.01;100754.19;5074689;28;45547;-76
2022/11/29 05:59:40;;;;;;;;;14.25;14.25;;;;;8.91;79.21;100760.38;5073762;27;47000;-74
2022/11/29 06:02:38;;;;;;;;;11.00;11.00;;;;;8.83;79.43;100763.25;5089158;27;45429;-78
2022/11/29 06:05:15;;;;;;;;;16.00;16.00;;;;;8.80;79.89;100765.97;5074358;27;45249;-76
2022/11/29 06:07:57;;;;;;;;;13.00;13.00;;;;;8.76;79.75;100769.56;5075459;28;45343;-75
2022/11/29 06:10:28;;;;;;;;;19.00;17.00;;;;;8.68;79.85;100772.41;5074350;27;46297;-77
2022/11/29 06:13:00;;;;;;;;;10.50;10.50;;;;;8.67;80.40;100775.94;5074114;28;45418;-74
2022/11/29 06:15:55;;;;;;;;;19.50;19.50;;;;;8.65;80.70;100780.38;5089571;27;45240;-75
2022/11/29 06:18:57;;;;;;;;;15.50;15.50;;;;;8.63;80.66;100779.56;5074502;27;45231;-76
2022/11/29 06:21:39;;;;;;;;;19.25;19.25;;;;;8.59;80.87;100784.03;5089590;27;48510;-76
2022/11/29 06:24:04;;;;;;;;;19.75;19.75;;;;;8.56;80.61;100786.75;5073856;27;45388;-76
2022/11/29 06:26:47;;;;;;;;;19.25;19.25;;;;;8.51;80.72;100782.53;5089286;27;45330;-75
2022/11/29 06:29:32;;;;;;;;;21.50;21.50;;;;;8.47;80.64;100793.06;5074212;27;45477;-76
2022/11/29 06:32:24;;;;;;;;;26.75;23.25;;;;;8.43;80.90;100791.44;5074274;27;47259;-76
2022/11/29 06:35:00;;;;;;;;;23.50;23.25;;;;;8.39;81.41;100794.16;5075217;27;45560;-71
2022/11/29 06:37:35;;;;;;;;;26.25;26.25;;;;;8.33;81.27;100787.34;5063427;28;45319;-74
2022/11/29 06:40:00;;;;;;;;;26.75;26.75;;;;;8.21;81.19;100785.91;5073414;28;45279;-72
2022/11/29 06:42:26;;;;;;;;;31.00;29.75;;;;;8.18;81.34;100791.25;5073701;27;45507;-73
2022/11/29 06:44:51;;;;;;;;;30.75;30.75;;;;;8.18;81.55;100797.34;5074177;27;45407;-75
2022/11/29 06:47:28;;;;;;;;;34.75;32.75;;;;;8.17;81.70;100806.13;5074354;27;45320;-76
2022/11/29 06:50:20;;;;;;;;;31.00;30.50;;;;;8.12;81.62;100802.75;5074558;27;45235;-74
2022/11/29 06:52:53;;;;;;;;;33.25;31.75;;;;;8.10;82.38;100811.53;5072261;27;48416;-73
2022/11/29 06:55:26;;;;;;;;;29.25;29.25;;;;;8.11;81.87;100818.50;5088875;27;45950;-75
2022/11/29 06:57:58;;;;;;;;;31.50;31.50;;;;;8.07;82.51;100811.63;5074054;27;45496;-73
2022/11/29 07:00:52;;;;;;;;;31.75;30.50;;;;;8.04;82.41;100820.44;5074912;27;45213;-75
2022/11/29 07:03:17;;;;;;;;;29.00;29.00;;;;;8.00;82.61;100824.88;5074610;27;46520;-79
2022/11/29 07:05:43;;;;;;;;;29.50;29.50;;;;;7.93;82.52;100820.69;5090022;27;45250;-74
2022/11/29 07:08:21;;;;;;;;;32.50;31.00;;;;;7.89;82.94;100821.69;5076604;27;45236;-75
2022/11/29 07:10:49;;;;;;;;;32.00;32.00;;;;;7.85;82.76;100817.41;5079147;27;45270;-76
2022/11/29 07:13:16;;;;;;;;;25.50;25.50;;;;;7.90;83.42;100839.13;5077299;28;47849;-85
2022/11/29 07:15:55;;;;;;;;;32.00;32.00;;;;;7.82;83.11;100833.22;5095945;27;45283;-83
2022/11/29 07:19:00;;;;;;;;;30.75;30.75;;;;;7.74;82.97;100822.91;5100334;27;45422;-76
2022/11/29 07:21:34;;;;;;;;;29.25;29.25;;;;;7.82;83.74;100839.28;5100647;27;45224;-84
2022/11/29 07:24:12;;;;;;;;;36.00;33.50;;;;;7.79;83.12;100841.16;5081176;27;47074;-80
2022/11/29 07:27:02;;;;;;;;;35.00;32.75;;;;;7.73;83.33;100835.16;5068775;28;46517;-84
2022/11/29 07:29:42;;;;;;;;;30.50;30.50;;;;;7.76;83.99;100836.81;5047827;27;45290;-78
2022/11/29 07:32:14;;;;;;;;;31.25;30.00;;;;;7.73;83.84;100843.00;5077083;28;45439;-80
2022/11/29 07:35:00;;;;;;;;;31.00;30.75;;;;;7.71;83.83;100844.81;5079283;28;45971;-78
2022/11/29 07:37:38;;;;;;;;;33.25;32.50;;;;;7.57;83.78;100832.03;5068442;27;45498;-80
2022/11/29 07:40:15;;;;;;;;;74.00;62.33;;;;;7.66;84.58;100848.41;5056136;28;45438;-64
2022/11/29 07:42:58;;;;;;;;;34.25;31.75;;;;;7.71;83.77;100851.78;5055427;28;45430;-66
2022/11/29 07:45:33;;;;;;;;;35.50;32.00;;;;;7.69;84.39;100854.47;5058652;28;46544;-64
2022/11/29 07:47:58;;;;;;;;;38.25;35.25;;;;;7.50;84.46;100830.47;5058135;28;45742;-70
2022/11/29 07:50:25;;;;;;;;;37.25;34.50;;;;;7.63;84.26;100849.38;5068058;27;45569;-70
2022/11/29 07:52:51;;;;;;;;;38.50;35.50;;;;;7.66;84.49;100862.38;5085697;27;45417;-71
2022/11/29 07:55:20;;;;;;;;;43.25;37.25;;;;;7.67;83.69;100866.72;5074544;27;45380;-70
2022/11/29 07:57:46;;;;;;;;;46.75;40.00;;;;;7.66;83.74;100866.75;5069691;27;45197;-70
2022/11/29 08:00:12;;;;;;;;;43.25;38.00;;;;;7.59;83.55;100860.81;5055242;27;45504;-71
2022/11/29 08:02:39;;;;;;;;;54.25;45.50;;;;;7.56;83.68;100872.19;5067767;27;45560;-70
2022/11/29 08:05:04;;;;;;;;;53.50;45.50;;;;;7.53;83.83;100871.44;5075766;27;46678;-72
2022/11/29 08:07:33;;;;;;;;;46.00;39.25;;;;;7.50;83.71;100881.97;5090383;27;45458;-71
2022/11/29 08:09:59;;;;;;;;;48.00;41.00;;;;;7.29;83.79;100853.59;5060553;27;45243;-69
2022/11/29 08:12:24;;;;;;;;;51.75;43.75;;;;;7.42;83.66;100882.13;5060248;27;45334;-70
2022/11/29 08:14:49;;;;;;;;;51.25;44.75;;;;;7.36;83.45;100879.66;5054505;28;45475;-70
2022/11/29 08:17:15;;;;;;;;;53.50;44.75;;;;;7.34;83.80;100882.28;5054446;27;45464;-70
2022/11/29 08:19:40;;;;;;;;;49.00;42.00;;;;;7.29;83.51;100882.41;5054446;27;45792;-69
2022/11/29 08:22:05;;;;;;;;;49.50;43.25;;;;;7.31;84.07;100898.03;5061697;27;45536;-69
2022/11/29 08:24:31;;;;;;;;;55.25;46.50;;;;;7.33;84.16;100884.94;5055156;27;45779;-70
2022/11/29 08:26:56;;;;;;;;;56.75;46.00;;;;;7.39;84.15;100892.66;5095905;27;45303;-69
2022/11/29 08:29:22;;;;;;;;;53.75;45.25;;;;;7.36;84.49;100885.72;5055448;27;45335;-69
2022/11/29 08:31:52;;;;;;;;;56.00;47.00;;;;;7.38;83.60;100891.78;5064532;27;45272;-66
2022/11/29 08:34:18;;;;;;;;;40.75;36.25;;;;;7.43;84.02;100908.28;5055678;27;46994;-66
2022/11/29 08:36:44;;;;;;;;;49.50;41.50;;;;;7.49;83.42;100911.66;5070272;28;45384;-67
2022/11/29 08:39:09;;;;;;;;;51.25;43.00;;;;;7.48;83.66;100915.16;5054863;28;45244;-69
2022/11/29 08:41:35;;;;;;;;;52.00;43.00;;;;;7.50;83.06;100919.47;5054904;28;45457;-66
2022/11/29 08:44:00;;;;;;;;;50.25;42.00;;;;;7.53;83.21;100918.53;5054868;28;46300;-67
2022/11/29 08:47:34;;;;;;;;;50.75;43.00;;;;;7.54;82.79;100922.88;5053826;28;45335;-68
2022/11/29 08:49:10;;;;;;;;;52.25;44.00;;;;;7.53;83.15;100916.78;5054540;28;45415;-67
2022/11/29 08:51:36;;;;;;;;;56.00;46.00;;;;;7.60;82.76;100943.69;5054682;28;45498;-67
2022/11/29 08:54:01;;;;;;;;;49.25;41.50;;;;;7.66;83.09;100937.44;5054636;28;46788;-67
2022/11/29 08:56:26;;;;;;;;;50.75;41.50;;;;;7.67;82.01;100936.53;5054556;28;45488;-66
2022/11/29 08:58:52;;;;;;;;;50.75;42.00;;;;;7.71;82.02;100944.31;5053606;28;45420;-66
2022/11/29 09:01:17;;;;;;;;;57.50;46.75;;;;;7.73;81.63;100942.53;5054812;28;45409;-69
2022/11/29 09:04:03;;;;;;;;;49.50;42.00;;;;;7.79;81.25;100946.75;5054040;28;45315;-66
2022/11/29 09:06:32;;;;;;;;;48.50;40.75;;;;;7.84;81.21;100949.28;5086996;27;45341;-67
2022/11/29 09:08:58;;;;;;;;;43.75;39.00;;;;;7.84;80.66;100954.50;5054739;28;45238;-67
2022/11/29 09:11:26;;;;;;;;;44.00;38.25;;;;;7.85;81.20;100953.63;5053979;28;45344;-67
2022/11/29 09:13:54;;;;;;;;;36.50;34.75;;;;;7.87;81.36;100959.69;5053393;28;45370;-68
2022/11/29 09:16:22;;;;;;;;;47.50;40.00;;;;;7.90;81.44;100970.09;5054027;28;45417;-67
2022/11/29 09:18:48;;;;;;;;;41.25;37.25;;;;;7.93;80.99;100967.38;5086358;27;45395;-67
2022/11/29 09:21:15;;;;;;;;;41.25;36.75;;;;;7.94;80.56;100960.38;5054010;28;45338;-70
2022/11/29 09:23:43;;;;;;;;;46.50;40.00;;;;;7.85;80.24;100951.84;5053427;28;46413;-67
2022/11/29 09:26:10;;;;;;;;;44.75;38.75;;;;;8.02;80.60;100979.44;5053685;28;45259;-67
2022/11/29 09:28:36;;;;;;;;;38.00;35.50;;;;;8.06;80.29;100975.84;5053466;28;45449;-67
2022/11/29 09:31:06;;;;;;;;;65.75;54.75;;;;;8.08;79.97;100978.41;5053259;28;45569;-67
2022/11/29 09:33:33;;;;;;;;;47.50;40.25;;;;;8.16;80.02;100990.44;5053421;28;45665;-67
2022/11/29 09:35:58;;;;;;;;;50.50;42.00;;;;;8.21;79.95;100992.94;5053285;28;45375;-67
2022/11/29 09:38:24;;;;;;;;;49.25;42.25;;;;;8.24;80.05;100995.50;5053540;28;45289;-66
2022/11/29 09:40:54;;;;;;;;;48.25;41.25;;;;;8.27;79.77;100997.19;5053729;28;45330;-67
2022/11/29 09:43:41;;;;;;;;;38.50;35.00;;;;;8.16;79.49;100979.09;5051597;28;47275;-67
2022/11/29 09:46:16;;;;;;;;;36.50;34.75;;;;;8.34;79.24;100998.75;5053156;28;45429;-67
2022/11/29 09:48:57;;;;;;;;;40.25;35.75;;;;;8.40;79.02;101005.59;5053582;28;45393;-67
2022/11/29 09:51:33;;;;;;;;;39.75;36.75;;;;;8.45;79.10;101007.22;5053682;28;45304;-67
2022/11/29 09:54:13;;;;;;;;;45.00;39.50;;;;;8.56;79.15;101014.00;5053418;28;46343;-66
2022/11/29 09:56:52;;;;;;;;;43.75;39.00;;;;;8.66;78.25;101017.25;5053190;28;45312;-68
2022/11/29 09:59:24;;;;;;;;;29.25;29.25;;;;;8.66;77.78;101018.13;5053135;28;45269;-67
2022/11/29 10:02:23;;;;;;;;;29.00;29.00;;;;;8.61;77.20;101026.09;5051731;28;45339;-67
2022/11/29 10:05:06;;;;;;;;;37.00;32.75;;;;;8.54;77.08;101021.91;5053038;28;46549;-67
2022/11/29 10:07:42;;;;;;;;;36.75;33.00;;;;;8.56;78.03;101035.84;5053691;28;45256;-67
2022/11/29 10:10:29;;;;;;;;;27.75;27.75;;;;;8.59;77.04;101037.53;5083726;27;45310;-69
2022/11/29 10:13:19;;;;;;;;;38.75;34.25;;;;;8.56;77.51;101038.47;5053202;28;45774;-68
2022/11/29 10:15:51;;;;;;;;;32.75;31.25;;;;;8.58;76.84;101038.41;5047239;28;47797;-67
2022/11/29 10:18:48;;;;;;;;;32.75;31.50;;;;;8.58;77.01;101041.03;5052858;28;45409;-67
2022/11/29 10:21:18;;;;;;;;;25.50;24.50;;;;;8.57;77.11;101032.34;5052764;28;45259;-68
2022/11/29 10:24:08;;;;;;;;;27.50;27.50;;;;;8.62;77.15;101037.44;5052863;28;45374;-67
2022/11/29 10:26:34;;;;;;;;;36.75;35.25;;;;;8.64;76.79;101046.13;5068223;28;47776;-67
2022/11/29 10:28:59;;;;;;;;;33.50;32.00;;;;;8.64;76.80;101040.88;5052540;28;45445;-68
2022/11/29 10:31:31;;;;;;;;;36.50;34.50;;;;;8.69;76.94;101038.16;5053059;28;45413;-67
2022/11/29 10:34:01;;;;;;;;;34.50;32.75;;;;;8.76;76.25;101045.81;5052822;28;45321;-67
2022/11/29 10:36:40;;;;;;;;;29.50;29.50;;;;;8.82;76.20;101057.06;5052423;28;46224;-68
2022/11/29 10:39:13;;;;;;;;;28.75;28.25;;;;;8.87;76.39;101050.81;5052947;28;45300;-66
2022/11/29 10:41:38;;;;;;;;;62.50;51.00;;;;;8.96;76.32;101056.72;5053608;28;45246;-67
2022/11/29 10:44:04;;;;;;;;;31.00;29.75;;;;;9.02;75.62;101056.56;5055106;28;45566;-67
2022/11/29 10:46:31;;;;;;;;;30.75;29.50;;;;;9.05;75.47;101053.84;5054264;28;47837;-68
2022/11/29 10:49:06;;;;;;;;;34.25;32.00;;;;;9.02;75.36;101048.69;5055860;28;45486;-67
2022/11/29 10:51:32;;;;;;;;;28.50;28.50;;;;;9.07;75.27;101052.06;5054272;28;45479;-67
2022/11/29 10:54:25;;;;;;;;;35.75;32.75;;;;;9.05;74.87;101046.88;5088423;27;45408;-67
2022/11/29 10:56:51;;;;;;;;;43.75;37.50;;;;;9.07;75.13;101046.81;5055392;28;47392;-67
2022/11/29 10:59:22;;;;;;;;;34.00;32.25;;;;;9.09;74.94;101039.75;5055561;28;45445;-68
2022/11/29 11:01:49;;;;;;;;;29.50;28.25;;;;;9.15;74.84;101046.63;5056062;28;45373;-69
2022/11/29 11:04:25;;;;;;;;;18.00;18.00;;;;;9.22;74.69;101056.03;5055925;28;45241;-66
2022/11/29 11:06:55;;;;;;;;;32.00;31.50;;;;;9.25;74.55;101057.72;5088326;27;47266;-67
2022/11/29 11:09:39;;;;;;;;;38.25;35.25;;;;;9.29;74.45;101061.97;5055587;28;45497;-66
2022/11/29 11:12:13;;;;;;;;;31.25;31.00;;;;;9.32;74.29;101060.16;5054406;28;45418;-67
2022/11/29 11:14:39;;;;;;;;;31.50;29.50;;;;;9.40;74.06;101062.53;5055624;28;46121;-67
2022/11/29 11:17:17;;;;;;;;;33.50;31.50;;;;;9.45;73.76;101059.81;5055539;28;45407;-67
2022/11/29 11:19:54;;;;;;;;;23.25;23.00;;;;;9.49;73.15;101062.28;5055464;28;45462;-68
2022/11/29 11:22:21;;;;;;;;;52.00;44.50;;;;;9.40;73.67;101048.56;5056112;28;45348;-67
2022/11/29 11:24:56;;;;;;;;;49.75;42.75;;;;;9.48;73.42;101057.94;5055916;28;45377;-66
2022/11/29 11:27:34;;;;;;;;;41.00;37.50;;;;;9.52;72.40;101068.34;5055497;28;46327;-69
2022/11/29 11:30:02;;;;;;;;;37.50;34.25;;;;;9.52;72.64;101066.59;5054350;28;45426;-68
2022/11/29 11:32:28;;;;;;;;;33.50;32.75;;;;;9.53;73.04;101070.06;5070200;28;45458;-68
2022/11/29 11:34:59;;;;;;;;;48.50;41.75;;;;;9.56;73.16;101064.78;5073961;28;45641;-68
2022/11/29 11:37:30;;;;;;;;;39.50;35.25;;;;;9.62;72.74;101057.56;5074694;28;45466;-68
2022/11/29 11:39:58;;;;;;;;;36.25;34.50;;;;;9.61;72.41;101063.72;5075953;27;45310;-67
2022/11/29 11:42:37;;;;;;;;;43.25;38.25;;;;;9.64;72.41;101050.50;5075429;27;45304;-67
2022/11/29 11:45:29;;;;;;;;;34.50;32.75;;;;;9.69;72.52;101057.38;5090051;27;45769;-68
2022/11/29 11:47:58;;;;;;;;;28.50;28.50;;;;;9.72;72.31;101059.91;5046446;28;45556;-67
2022/11/29 11:50:26;;;;;;;;;29.50;29.50;;;;;9.76;72.26;101054.53;5075967;28;45279;-68
2022/11/29 11:52:57;;;;;;;;;42.00;37.50;;;;;9.82;72.40;101064.00;5090602;27;45326;-68
2022/11/29 11:55:28;;;;;;;;;31.00;30.75;;;;;9.84;71.78;101056.94;5075123;28;45590;-68
2022/11/29 11:57:56;;;;;;;;;34.00;32.75;;;;;9.85;72.02;101058.66;5075606;27;45368;-67